sensor_id;sensor_type;location;lat;lon;timestamp;P1;durP1;ratioP1;P2;durP2;ratioP2
20772;SDS011;10546;50.674;4.616;2022-07-30T00:02:02;21.30;;;7.25;;
20772;SDS011;10546;50.674;4.616;2022-07-30T00:04:28;23.48;;;11.10;;
20772;SDS011;10546;50.674;4.616;2022-07-30T00:06:53;18.33;;;8.88;;
20772;SDS011;10546;50.674;4.616;2022-07-30T00:09:19;10.10;;;4.70;;
20772;SDS011;10546;50.674;4.616;2022-07-30T00:11:45;12.00;;;4.40;;
20772;SDS011;10546;50.674;4.616;2022-07-30T00:14:10;8.13;;;4.20;;
20772;SDS011;10546;50.674;4.616;2022-07-30T00:16:36;22.90;;;5.82;;
20772;SDS011;10546;50.674;4.616;2022-07-30T00:19:02;7.72;;;4.25;;
20772;SDS011;10546;50.674;4.616;2022-07-30T00:21:28;10.80;;;4.40;;
20772;SDS011;10546;50.674;4.616;2022-07-30T00:23:54;12.18;;;4.18;;
20772;SDS011;10546;50.674;4.616;2022-07-30T00:26:19;11.30;;;4.50;;
20772;SDS011;10546;50.674;4.616;2022-07-30T00:28:45;13.77;;;4.40;;
20772;SDS011;10546;50.674;4.616;2022-07-30T00:31:11;9.90;;;4.45;;
20772;SDS011;10546;50.674;4.616;2022-07-30T00:33:36;16.92;;;4.53;;
20772;SDS011;10546;50.674;4.616;2022-07-30T00:36:02;12.93;;;4.53;;
20772;SDS011;10546;50.674;4.616;2022-07-30T00:38:28;12.85;;;5.25;;
20772;SDS011;10546;50.674;4.616;2022-07-30T00:40:54;12.55;;;5.00;;
20772;SDS011;10546;50.674;4.616;2022-07-30T00:43:19;9.52;;;4.45;;
20772;SDS011;10546;50.674;4.616;2022-07-30T00:45:45;14.43;;;4.57;;
20772;SDS011;10546;50.674;4.616;2022-07-30T00:48:12;9.32;;;5.07;;
20772;SDS011;10546;50.674;4.616;2022-07-30T00:50:38;11.45;;;4.45;;
20772;SDS011;10546;50.674;4.616;2022-07-30T00:53:04;13.07;;;4.88;;
20772;SDS011;10546;50.674;4.616;2022-07-30T00:55:31;13.25;;;4.45;;
20772;SDS011;10546;50.674;4.616;2022-07-30T00:57:57;11.80;;;4.80;;
20772;SDS011;10546;50.674;4.616;2022-07-30T01:00:24;10.32;;;5.20;;
20772;SDS011;10546;50.674;4.616;2022-07-30T01:02:49;12.75;;;5.03;;
20772;SDS011;10546;50.674;4.616;2022-07-30T01:05:15;10.63;;;5.03;;
20772;SDS011;10546;50.674;4.616;2022-07-30T01:07:41;10.55;;;5.07;;
20772;SDS011;10546;50.674;4.616;2022-07-30T01:10:08;12.00;;;5.68;;
20772;SDS011;10546;50.674;4.616;2022-07-30T01:12:35;8.02;;;4.32;;
20772;SDS011;10546;50.674;4.616;2022-07-30T01:15:03;11.93;;;5.00;;
20772;SDS011;10546;50.674;4.616;2022-07-30T01:17:30;8.43;;;5.00;;
20772;SDS011;10546;50.674;4.616;2022-07-30T01:19:58;9.18;;;5.40;;
20772;SDS011;10546;50.674;4.616;2022-07-30T01:27:47;9.82;;;5.30;;
20772;SDS011;10546;50.674;4.616;2022-07-30T01:30:18;10.85;;;5.13;;
20772;SDS011;10546;50.674;4.616;2022-07-30T01:32:45;9.63;;;6.05;;
20772;SDS011;10546;50.674;4.616;2022-07-30T01:35:12;11.32;;;5.80;;
20772;SDS011;10546;50.674;4.616;2022-07-30T01:37:39;10.13;;;6.10;;
20772;SDS011;10546;50.674;4.616;2022-07-30T01:40:08;11.77;;;5.60;;
20772;SDS011;10546;50.674;4.616;2022-07-30T01:42:35;13.40;;;5.95;;
20772;SDS011;10546;50.674;4.616;2022-07-30T01:45:03;12.43;;;6.25;;
20772;SDS011;10546;50.674;4.616;2022-07-30T01:47:31;15.73;;;6.07;;
20772;SDS011;10546;50.674;4.616;2022-07-30T01:49:59;11.65;;;6.57;;
20772;SDS011;10546;50.674;4.616;2022-07-30T01:52:28;11.50;;;6.32;;
20772;SDS011;10546;50.674;4.616;2022-07-30T01:54:57;13.45;;;6.78;;
20772;SDS011;10546;50.674;4.616;2022-07-30T01:57:24;11.75;;;6.50;;
20772;SDS011;10546;50.674;4.616;2022-07-30T01:59:51;12.90;;;6.72;;
20772;SDS011;10546;50.674;4.616;2022-07-30T02:02:20;10.73;;;6.13;;
20772;SDS011;10546;50.674;4.616;2022-07-30T02:04:46;16.05;;;6.60;;
20772;SDS011;10546;50.674;4.616;2022-07-30T02:09:50;10.68;;;6.78;;
20772;SDS011;10546;50.674;4.616;2022-07-30T02:12:22;13.38;;;6.90;;
20772;SDS011;10546;50.674;4.616;2022-07-30T02:14:54;16.02;;;8.00;;
20772;SDS011;10546;50.674;4.616;2022-07-30T02:17:43;16.27;;;6.50;;
20772;SDS011;10546;50.674;4.616;2022-07-30T02:20:18;11.23;;;6.93;;
20772;SDS011;10546;50.674;4.616;2022-07-30T02:22:48;12.30;;;6.95;;
20772;SDS011;10546;50.674;4.616;2022-07-30T02:25:17;17.27;;;8.43;;
20772;SDS011;10546;50.674;4.616;2022-07-30T02:27:45;14.63;;;7.85;;
20772;SDS011;10546;50.674;4.616;2022-07-30T02:30:16;14.45;;;8.35;;
20772;SDS011;10546;50.674;4.616;2022-07-30T02:32:42;16.90;;;7.93;;
20772;SDS011;10546;50.674;4.616;2022-07-30T02:35:20;22.33;;;7.90;;
20772;SDS011;10546;50.674;4.616;2022-07-30T02:37:48;16.55;;;8.75;;
20772;SDS011;10546;50.674;4.616;2022-07-30T02:40:17;16.25;;;8.18;;
20772;SDS011;10546;50.674;4.616;2022-07-30T02:42:46;19.27;;;9.27;;
20772;SDS011;10546;50.674;4.616;2022-07-30T02:45:17;14.40;;;8.85;;
20772;SDS011;10546;50.674;4.616;2022-07-30T02:47:44;12.50;;;8.88;;
20772;SDS011;10546;50.674;4.616;2022-07-30T02:50:12;23.23;;;10.45;;
20772;SDS011;10546;50.674;4.616;2022-07-30T02:52:39;23.67;;;10.38;;
20772;SDS011;10546;50.674;4.616;2022-07-30T02:55:07;18.35;;;10.90;;
20772;SDS011;10546;50.674;4.616;2022-07-30T02:57:35;25.90;;;11.15;;
20772;SDS011;10546;50.674;4.616;2022-07-30T03:00:04;23.98;;;12.20;;
20772;SDS011;10546;50.674;4.616;2022-07-30T03:02:31;42.60;;;12.38;;
20772;SDS011;10546;50.674;4.616;2022-07-30T03:04:59;27.58;;;12.23;;
20772;SDS011;10546;50.674;4.616;2022-07-30T03:07:26;26.85;;;12.13;;
20772;SDS011;10546;50.674;4.616;2022-07-30T03:09:54;24.00;;;12.10;;
20772;SDS011;10546;50.674;4.616;2022-07-30T03:12:21;30.13;;;12.13;;
20772;SDS011;10546;50.674;4.616;2022-07-30T03:14:47;25.85;;;11.30;;
20772;SDS011;10546;50.674;4.616;2022-07-30T03:17:14;21.08;;;11.98;;
20772;SDS011;10546;50.674;4.616;2022-07-30T03:19:41;18.65;;;11.57;;
20772;SDS011;10546;50.674;4.616;2022-07-30T03:22:09;19.58;;;11.60;;
20772;SDS011;10546;50.674;4.616;2022-07-30T03:24:37;22.10;;;12.38;;
20772;SDS011;10546;50.674;4.616;2022-07-30T03:27:04;26.00;;;13.02;;
20772;SDS011;10546;50.674;4.616;2022-07-30T03:29:31;25.85;;;13.45;;
20772;SDS011;10546;50.674;4.616;2022-07-30T03:31:58;24.95;;;13.40;;
20772;SDS011;10546;50.674;4.616;2022-07-30T03:34:25;25.88;;;13.25;;
20772;SDS011;10546;50.674;4.616;2022-07-30T03:36:51;26.40;;;13.25;;
20772;SDS011;10546;50.674;4.616;2022-07-30T03:39:17;29.83;;;13.38;;
20772;SDS011;10546;50.674;4.616;2022-07-30T03:41:45;24.38;;;13.80;;
20772;SDS011;10546;50.674;4.616;2022-07-30T03:44:12;28.67;;;13.43;;
20772;SDS011;10546;50.674;4.616;2022-07-30T03:46:38;29.58;;;13.90;;
20772;SDS011;10546;50.674;4.616;2022-07-30T03:49:04;27.75;;;13.95;;
20772;SDS011;10546;50.674;4.616;2022-07-30T03:51:33;35.35;;;13.82;;
20772;SDS011;10546;50.674;4.616;2022-07-30T03:54:00;27.27;;;13.57;;
20772;SDS011;10546;50.674;4.616;2022-07-30T03:56:28;24.40;;;13.30;;
20772;SDS011;10546;50.674;4.616;2022-07-30T03:58:54;27.38;;;13.32;;
20772;SDS011;10546;50.674;4.616;2022-07-30T04:01:23;30.55;;;14.65;;
20772;SDS011;10546;50.674;4.616;2022-07-30T04:03:49;31.15;;;15.13;;
20772;SDS011;10546;50.674;4.616;2022-07-30T04:06:15;31.55;;;14.60;;
20772;SDS011;10546;50.674;4.616;2022-07-30T04:08:41;24.13;;;13.85;;
20772;SDS011;10546;50.674;4.616;2022-07-30T04:11:06;24.08;;;14.15;;
20772;SDS011;10546;50.674;4.616;2022-07-30T04:13:32;23.02;;;13.48;;
20772;SDS011;10546;50.674;4.616;2022-07-30T04:16:00;25.63;;;13.27;;
20772;SDS011;10546;50.674;4.616;2022-07-30T04:18:33;26.27;;;13.85;;
20772;SDS011;10546;50.674;4.616;2022-07-30T04:21:02;21.92;;;12.70;;
20772;SDS011;10546;50.674;4.616;2022-07-30T04:23:31;24.83;;;12.43;;
20772;SDS011;10546;50.674;4.616;2022-07-30T04:25:58;23.65;;;12.07;;
20772;SDS011;10546;50.674;4.616;2022-07-30T04:28:25;24.17;;;12.27;;
20772;SDS011;10546;50.674;4.616;2022-07-30T04:30:53;23.83;;;12.30;;
20772;SDS011;10546;50.674;4.616;2022-07-30T04:33:19;29.05;;;14.02;;
20772;SDS011;10546;50.674;4.616;2022-07-30T04:35:45;23.58;;;14.68;;
20772;SDS011;10546;50.674;4.616;2022-07-30T04:38:11;29.00;;;15.18;;
20772;SDS011;10546;50.674;4.616;2022-07-30T04:40:38;27.33;;;15.35;;
20772;SDS011;10546;50.674;4.616;2022-07-30T04:43:07;29.42;;;16.30;;
20772;SDS011;10546;50.674;4.616;2022-07-30T04:45:32;36.05;;;16.60;;
20772;SDS011;10546;50.674;4.616;2022-07-30T04:47:59;28.10;;;16.02;;
20772;SDS011;10546;50.674;4.616;2022-07-30T04:50:25;29.42;;;15.48;;
20772;SDS011;10546;50.674;4.616;2022-07-30T04:52:53;36.13;;;16.55;;
20772;SDS011;10546;50.674;4.616;2022-07-30T04:55:20;32.08;;;15.63;;
20772;SDS011;10546;50.674;4.616;2022-07-30T04:57:48;34.92;;;15.48;;
20772;SDS011;10546;50.674;4.616;2022-07-30T05:00:16;29.00;;;15.48;;
20772;SDS011;10546;50.674;4.616;2022-07-30T05:02:43;24.52;;;14.45;;
20772;SDS011;10546;50.674;4.616;2022-07-30T05:05:10;22.00;;;13.90;;
20772;SDS011;10546;50.674;4.616;2022-07-30T05:07:38;24.25;;;14.63;;
20772;SDS011;10546;50.674;4.616;2022-07-30T05:10:05;27.05;;;14.07;;
20772;SDS011;10546;50.674;4.616;2022-07-30T05:12:32;29.35;;;14.55;;
20772;SDS011;10546;50.674;4.616;2022-07-30T05:15:01;31.02;;;14.68;;
20772;SDS011;10546;50.674;4.616;2022-07-30T05:17:31;24.63;;;13.80;;
20772;SDS011;10546;50.674;4.616;2022-07-30T05:19:57;23.45;;;13.82;;
20772;SDS011;10546;50.674;4.616;2022-07-30T05:22:22;24.35;;;13.85;;
20772;SDS011;10546;50.674;4.616;2022-07-30T05:24:51;22.27;;;12.73;;
20772;SDS011;10546;50.674;4.616;2022-07-30T05:27:17;19.08;;;12.52;;
20772;SDS011;10546;50.674;4.616;2022-07-30T05:29:44;23.75;;;12.73;;
20772;SDS011;10546;50.674;4.616;2022-07-30T05:32:10;19.98;;;11.02;;
20772;SDS011;10546;50.674;4.616;2022-07-30T05:34:35;16.02;;;10.05;;
20772;SDS011;10546;50.674;4.616;2022-07-30T05:37:01;16.35;;;9.48;;
20772;SDS011;10546;50.674;4.616;2022-07-30T05:39:27;18.15;;;9.55;;
20772;SDS011;10546;50.674;4.616;2022-07-30T05:41:53;15.23;;;8.70;;
20772;SDS011;10546;50.674;4.616;2022-07-30T05:44:19;15.13;;;9.63;;
20772;SDS011;10546;50.674;4.616;2022-07-30T05:46:44;13.93;;;8.85;;
20772;SDS011;10546;50.674;4.616;2022-07-30T05:49:10;18.95;;;8.38;;
20772;SDS011;10546;50.674;4.616;2022-07-30T05:51:36;15.13;;;7.97;;
20772;SDS011;10546;50.674;4.616;2022-07-30T05:54:01;14.07;;;8.40;;
20772;SDS011;10546;50.674;4.616;2022-07-30T05:56:28;14.77;;;8.07;;
20772;SDS011;10546;50.674;4.616;2022-07-30T05:58:53;19.27;;;8.70;;
20772;SDS011;10546;50.674;4.616;2022-07-30T06:01:19;15.32;;;7.65;;
20772;SDS011;10546;50.674;4.616;2022-07-30T06:03:45;14.05;;;8.60;;
20772;SDS011;10546;50.674;4.616;2022-07-30T06:06:10;13.75;;;7.72;;
20772;SDS011;10546;50.674;4.616;2022-07-30T06:08:36;14.98;;;8.90;;
20772;SDS011;10546;50.674;4.616;2022-07-30T06:11:02;18.92;;;8.35;;
20772;SDS011;10546;50.674;4.616;2022-07-30T06:13:28;14.60;;;8.80;;
20772;SDS011;10546;50.674;4.616;2022-07-30T06:15:54;15.20;;;8.77;;
20772;SDS011;10546;50.674;4.616;2022-07-30T06:18:19;15.98;;;8.23;;
20772;SDS011;10546;50.674;4.616;2022-07-30T06:20:45;14.90;;;8.40;;
20772;SDS011;10546;50.674;4.616;2022-07-30T06:23:11;15.73;;;8.30;;
20772;SDS011;10546;50.674;4.616;2022-07-30T06:25:37;14.65;;;8.25;;
20772;SDS011;10546;50.674;4.616;2022-07-30T06:28:02;17.00;;;8.45;;
20772;SDS011;10546;50.674;4.616;2022-07-30T06:30:28;14.65;;;8.38;;
20772;SDS011;10546;50.674;4.616;2022-07-30T06:32:54;14.23;;;7.40;;
20772;SDS011;10546;50.674;4.616;2022-07-30T06:35:19;12.50;;;7.50;;
20772;SDS011;10546;50.674;4.616;2022-07-30T06:37:45;14.13;;;7.68;;
20772;SDS011;10546;50.674;4.616;2022-07-30T06:40:11;12.50;;;8.27;;
20772;SDS011;10546;50.674;4.616;2022-07-30T06:42:37;15.40;;;8.10;;
20772;SDS011;10546;50.674;4.616;2022-07-30T06:45:03;18.65;;;8.30;;
20772;SDS011;10546;50.674;4.616;2022-07-30T06:47:29;15.82;;;7.63;;
20772;SDS011;10546;50.674;4.616;2022-07-30T06:49:55;12.35;;;8.38;;
20772;SDS011;10546;50.674;4.616;2022-07-30T06:52:22;13.80;;;8.20;;
20772;SDS011;10546;50.674;4.616;2022-07-30T06:54:48;13.32;;;6.93;;
20772;SDS011;10546;50.674;4.616;2022-07-30T06:57:14;15.35;;;6.47;;
20772;SDS011;10546;50.674;4.616;2022-07-30T06:59:40;12.82;;;5.93;;
20772;SDS011;10546;50.674;4.616;2022-07-30T07:02:05;10.68;;;5.78;;
20772;SDS011;10546;50.674;4.616;2022-07-30T07:04:31;9.98;;;5.45;;
20772;SDS011;10546;50.674;4.616;2022-07-30T07:06:57;13.52;;;5.13;;
20772;SDS011;10546;50.674;4.616;2022-07-30T07:09:23;11.85;;;5.28;;
20772;SDS011;10546;50.674;4.616;2022-07-30T07:11:48;10.65;;;5.03;;
20772;SDS011;10546;50.674;4.616;2022-07-30T07:14:14;12.05;;;4.43;;
20772;SDS011;10546;50.674;4.616;2022-07-30T07:16:39;10.32;;;4.38;;
20772;SDS011;10546;50.674;4.616;2022-07-30T07:19:05;13.32;;;5.55;;
20772;SDS011;10546;50.674;4.616;2022-07-30T07:21:31;10.88;;;4.13;;
20772;SDS011;10546;50.674;4.616;2022-07-30T07:23:56;6.97;;;3.80;;
20772;SDS011;10546;50.674;4.616;2022-07-30T07:26:24;9.90;;;4.95;;
20772;SDS011;10546;50.674;4.616;2022-07-30T07:28:50;9.18;;;4.28;;
20772;SDS011;10546;50.674;4.616;2022-07-30T07:31:16;10.30;;;2.80;;
20772;SDS011;10546;50.674;4.616;2022-07-30T07:33:41;5.63;;;2.40;;
20772;SDS011;10546;50.674;4.616;2022-07-30T07:36:07;6.88;;;2.50;;
20772;SDS011;10546;50.674;4.616;2022-07-30T07:38:32;8.48;;;2.63;;
20772;SDS011;10546;50.674;4.616;2022-07-30T07:40:58;8.10;;;3.10;;
20772;SDS011;10546;50.674;4.616;2022-07-30T07:43:25;9.30;;;2.53;;
20772;SDS011;10546;50.674;4.616;2022-07-30T07:45:50;8.32;;;2.78;;
20772;SDS011;10546;50.674;4.616;2022-07-30T07:48:16;7.82;;;3.10;;
20772;SDS011;10546;50.674;4.616;2022-07-30T07:50:42;7.32;;;2.63;;
20772;SDS011;10546;50.674;4.616;2022-07-30T07:53:08;5.03;;;2.55;;
20772;SDS011;10546;50.674;4.616;2022-07-30T07:55:34;7.15;;;2.60;;
20772;SDS011;10546;50.674;4.616;2022-07-30T07:57:59;6.07;;;2.70;;
20772;SDS011;10546;50.674;4.616;2022-07-30T08:00:26;7.28;;;2.83;;
20772;SDS011;10546;50.674;4.616;2022-07-30T08:02:51;5.13;;;2.70;;
20772;SDS011;10546;50.674;4.616;2022-07-30T08:05:17;6.97;;;2.83;;
20772;SDS011;10546;50.674;4.616;2022-07-30T08:07:43;6.63;;;2.97;;
20772;SDS011;10546;50.674;4.616;2022-07-30T08:10:09;7.97;;;2.92;;
20772;SDS011;10546;50.674;4.616;2022-07-30T08:12:39;5.78;;;2.72;;
20772;SDS011;10546;50.674;4.616;2022-07-30T08:15:06;5.45;;;2.63;;
20772;SDS011;10546;50.674;4.616;2022-07-30T08:17:33;10.65;;;2.45;;
20772;SDS011;10546;50.674;4.616;2022-07-30T08:20:05;4.63;;;1.80;;
20772;SDS011;10546;50.674;4.616;2022-07-30T08:22:31;4.55;;;1.65;;
20772;SDS011;10546;50.674;4.616;2022-07-30T08:24:56;5.55;;;1.95;;
20772;SDS011;10546;50.674;4.616;2022-07-30T08:27:22;4.53;;;1.25;;
20772;SDS011;10546;50.674;4.616;2022-07-30T08:29:48;6.07;;;1.45;;
20772;SDS011;10546;50.674;4.616;2022-07-30T08:32:13;6.20;;;1.80;;
20772;SDS011;10546;50.674;4.616;2022-07-30T08:34:39;5.13;;;1.80;;
20772;SDS011;10546;50.674;4.616;2022-07-30T08:37:04;6.75;;;1.80;;
20772;SDS011;10546;50.674;4.616;2022-07-30T08:39:30;4.80;;;1.88;;
20772;SDS011;10546;50.674;4.616;2022-07-30T08:41:56;6.68;;;1.65;;
20772;SDS011;10546;50.674;4.616;2022-07-30T08:44:23;4.40;;;1.75;;
20772;SDS011;10546;50.674;4.616;2022-07-30T08:46:50;4.32;;;1.60;;
20772;SDS011;10546;50.674;4.616;2022-07-30T08:49:20;4.43;;;1.75;;
20772;SDS011;10546;50.674;4.616;2022-07-30T08:51:46;6.10;;;1.77;;
20772;SDS011;10546;50.674;4.616;2022-07-30T08:54:13;4.07;;;2.15;;
20772;SDS011;10546;50.674;4.616;2022-07-30T08:56:40;3.92;;;1.85;;
20772;SDS011;10546;50.674;4.616;2022-07-30T08:59:06;2.83;;;1.77;;
20772;SDS011;10546;50.674;4.616;2022-07-30T09:01:32;6.65;;;2.20;;
20772;SDS011;10546;50.674;4.616;2022-07-30T09:03:57;7.35;;;2.00;;
20772;SDS011;10546;50.674;4.616;2022-07-30T09:06:23;5.78;;;1.88;;
20772;SDS011;10546;50.674;4.616;2022-07-30T09:08:49;5.28;;;1.83;;
20772;SDS011;10546;50.674;4.616;2022-07-30T09:11:14;7.20;;;1.60;;
20772;SDS011;10546;50.674;4.616;2022-07-30T09:13:40;2.38;;;1.15;;
20772;SDS011;10546;50.674;4.616;2022-07-30T09:16:07;5.70;;;1.65;;
20772;SDS011;10546;50.674;4.616;2022-07-30T09:18:43;6.47;;;1.50;;
20772;SDS011;10546;50.674;4.616;2022-07-30T09:23:53;2.97;;;1.48;;
20772;SDS011;10546;50.674;4.616;2022-07-30T09:26:23;8.48;;;1.65;;
20772;SDS011;10546;50.674;4.616;2022-07-30T09:28:49;4.03;;;1.45;;
20772;SDS011;10546;50.674;4.616;2022-07-30T09:31:15;3.95;;;1.67;;
20772;SDS011;10546;50.674;4.616;2022-07-30T09:33:42;6.93;;;2.00;;
20772;SDS011;10546;50.674;4.616;2022-07-30T09:36:16;3.30;;;1.70;;
20772;SDS011;10546;50.674;4.616;2022-07-30T09:41:16;8.65;;;1.63;;
20772;SDS011;10546;50.674;4.616;2022-07-30T09:46:13;4.28;;;1.63;;
20772;SDS011;10546;50.674;4.616;2022-07-30T09:48:39;8.10;;;1.95;;
20772;SDS011;10546;50.674;4.616;2022-07-30T09:51:05;4.05;;;1.77;;
20772;SDS011;10546;50.674;4.616;2022-07-30T09:53:32;4.13;;;1.83;;
20772;SDS011;10546;50.674;4.616;2022-07-30T09:55:58;4.03;;;1.75;;
20772;SDS011;10546;50.674;4.616;2022-07-30T09:58:24;6.65;;;1.75;;
20772;SDS011;10546;50.674;4.616;2022-07-30T10:01:01;4.50;;;1.70;;
20772;SDS011;10546;50.674;4.616;2022-07-30T10:03:27;3.80;;;1.60;;
20772;SDS011;10546;50.674;4.616;2022-07-30T10:05:53;4.80;;;1.52;;
20772;SDS011;10546;50.674;4.616;2022-07-30T10:08:40;6.40;;;1.60;;
20772;SDS011;10546;50.674;4.616;2022-07-30T10:11:08;5.13;;;1.52;;
20772;SDS011;10546;50.674;4.616;2022-07-30T10:13:36;6.88;;;1.60;;
20772;SDS011;10546;50.674;4.616;2022-07-30T10:16:02;6.82;;;1.70;;
20772;SDS011;10546;50.674;4.616;2022-07-30T10:18:29;5.45;;;1.75;;
20772;SDS011;10546;50.674;4.616;2022-07-30T10:20:55;8.38;;;1.90;;
20772;SDS011;10546;50.674;4.616;2022-07-30T10:23:22;4.30;;;1.65;;
20772;SDS011;10546;50.674;4.616;2022-07-30T10:25:52;5.65;;;1.60;;
20772;SDS011;10546;50.674;4.616;2022-07-30T10:28:20;6.45;;;1.58;;
20772;SDS011;10546;50.674;4.616;2022-07-30T10:30:48;7.28;;;1.67;;
20772;SDS011;10546;50.674;4.616;2022-07-30T10:33:14;5.05;;;1.77;;
20772;SDS011;10546;50.674;4.616;2022-07-30T10:35:41;3.95;;;1.50;;
20772;SDS011;10546;50.674;4.616;2022-07-30T10:38:08;3.97;;;1.48;;
20772;SDS011;10546;50.674;4.616;2022-07-30T10:40:37;3.53;;;1.50;;
20772;SDS011;10546;50.674;4.616;2022-07-30T10:43:22;7.50;;;1.60;;
20772;SDS011;10546;50.674;4.616;2022-07-30T10:49:09;5.40;;;1.67;;
20772;SDS011;10546;50.674;4.616;2022-07-30T10:51:52;4.88;;;1.45;;
20772;SDS011;10546;50.674;4.616;2022-07-30T10:57:02;6.10;;;1.73;;
20772;SDS011;10546;50.674;4.616;2022-07-30T11:02:13;5.22;;;1.80;;
20772;SDS011;10546;50.674;4.616;2022-07-30T11:04:39;3.60;;;1.80;;
20772;SDS011;10546;50.674;4.616;2022-07-30T11:09:46;2.72;;;1.77;;
20772;SDS011;10546;50.674;4.616;2022-07-30T11:12:12;3.70;;;1.58;;
20772;SDS011;10546;50.674;4.616;2022-07-30T11:17:14;8.68;;;1.77;;
20772;SDS011;10546;50.674;4.616;2022-07-30T11:22:30;6.63;;;1.80;;
20772;SDS011;10546;50.674;4.616;2022-07-30T11:25:03;6.03;;;1.60;;
20772;SDS011;10546;50.674;4.616;2022-07-30T11:29:59;5.85;;;2.55;;
20772;SDS011;10546;50.674;4.616;2022-07-30T11:32:30;4.53;;;1.67;;
20772;SDS011;10546;50.674;4.616;2022-07-30T11:40:24;4.82;;;1.88;;
20772;SDS011;10546;50.674;4.616;2022-07-30T11:45:48;3.33;;;1.60;;
20772;SDS011;10546;50.674;4.616;2022-07-30T11:48:15;3.47;;;1.80;;
20772;SDS011;10546;50.674;4.616;2022-07-30T11:50:42;5.32;;;2.08;;
20772;SDS011;10546;50.674;4.616;2022-07-30T11:53:12;2.88;;;1.60;;
20772;SDS011;10546;50.674;4.616;2022-07-30T11:55:40;14.38;;;2.03;;
20772;SDS011;10546;50.674;4.616;2022-07-30T11:58:30;2.72;;;1.50;;
20772;SDS011;10546;50.674;4.616;2022-07-30T12:01:05;5.93;;;1.90;;
20772;SDS011;10546;50.674;4.616;2022-07-30T12:03:38;5.88;;;1.70;;
20772;SDS011;10546;50.674;4.616;2022-07-30T12:06:05;8.93;;;1.73;;
20772;SDS011;10546;50.674;4.616;2022-07-30T12:08:52;6.00;;;1.45;;
20772;SDS011;10546;50.674;4.616;2022-07-30T12:11:18;5.78;;;1.60;;
20772;SDS011;10546;50.674;4.616;2022-07-30T12:13:57;3.72;;;1.63;;
20772;SDS011;10546;50.674;4.616;2022-07-30T12:16:24;4.20;;;1.83;;
20772;SDS011;10546;50.674;4.616;2022-07-30T12:18:50;6.22;;;1.90;;
20772;SDS011;10546;50.674;4.616;2022-07-30T12:21:16;3.63;;;1.63;;
20772;SDS011;10546;50.674;4.616;2022-07-30T12:24:00;4.20;;;1.52;;
20772;SDS011;10546;50.674;4.616;2022-07-30T12:26:31;3.10;;;1.50;;
20772;SDS011;10546;50.674;4.616;2022-07-30T12:29:00;3.97;;;1.80;;
20772;SDS011;10546;50.674;4.616;2022-07-30T12:31:28;4.10;;;1.88;;
20772;SDS011;10546;50.674;4.616;2022-07-30T12:33:54;4.75;;;1.85;;
20772;SDS011;10546;50.674;4.616;2022-07-30T12:36:26;3.80;;;1.70;;
20772;SDS011;10546;50.674;4.616;2022-07-30T12:38:56;5.30;;;1.70;;
20772;SDS011;10546;50.674;4.616;2022-07-30T12:41:39;4.10;;;1.80;;
20772;SDS011;10546;50.674;4.616;2022-07-30T12:44:06;4.00;;;1.60;;
20772;SDS011;10546;50.674;4.616;2022-07-30T12:46:36;5.05;;;1.67;;
20772;SDS011;10546;50.674;4.616;2022-07-30T12:49:04;5.75;;;1.48;;
20772;SDS011;10546;50.674;4.616;2022-07-30T12:51:32;3.58;;;1.77;;
20772;SDS011;10546;50.674;4.616;2022-07-30T12:54:15;3.33;;;1.90;;
20772;SDS011;10546;50.674;4.616;2022-07-30T12:56:59;4.72;;;1.52;;
20772;SDS011;10546;50.674;4.616;2022-07-30T12:59:29;4.55;;;1.30;;
20772;SDS011;10546;50.674;4.616;2022-07-30T13:01:56;3.22;;;1.50;;
20772;SDS011;10546;50.674;4.616;2022-07-30T13:04:24;3.88;;;1.38;;
20772;SDS011;10546;50.674;4.616;2022-07-30T13:07:07;3.45;;;1.63;;
20772;SDS011;10546;50.674;4.616;2022-07-30T13:09:34;3.47;;;1.45;;
20772;SDS011;10546;50.674;4.616;2022-07-30T13:12:01;4.28;;;1.67;;
20772;SDS011;10546;50.674;4.616;2022-07-30T13:14:27;2.90;;;1.38;;
20772;SDS011;10546;50.674;4.616;2022-07-30T13:16:53;3.00;;;1.30;;
20772;SDS011;10546;50.674;4.616;2022-07-30T13:19:23;5.65;;;1.65;;
20772;SDS011;10546;50.674;4.616;2022-07-30T13:21:49;6.13;;;1.40;;
20772;SDS011;10546;50.674;4.616;2022-07-30T13:24:15;5.35;;;1.60;;
20772;SDS011;10546;50.674;4.616;2022-07-30T13:26:42;2.95;;;1.30;;
20772;SDS011;10546;50.674;4.616;2022-07-30T13:29:08;6.72;;;1.48;;
20772;SDS011;10546;50.674;4.616;2022-07-30T13:31:34;3.90;;;1.40;;
20772;SDS011;10546;50.674;4.616;2022-07-30T13:33:59;4.28;;;1.50;;
20772;SDS011;10546;50.674;4.616;2022-07-30T13:36:26;4.43;;;1.60;;
20772;SDS011;10546;50.674;4.616;2022-07-30T13:38:51;8.07;;;1.80;;
20772;SDS011;10546;50.674;4.616;2022-07-30T13:41:17;2.05;;;1.40;;
20772;SDS011;10546;50.674;4.616;2022-07-30T13:43:43;2.83;;;1.45;;
20772;SDS011;10546;50.674;4.616;2022-07-30T13:46:09;5.47;;;1.63;;
20772;SDS011;10546;50.674;4.616;2022-07-30T13:48:35;8.30;;;1.45;;
20772;SDS011;10546;50.674;4.616;2022-07-30T13:51:00;5.13;;;1.60;;
20772;SDS011;10546;50.674;4.616;2022-07-30T13:53:27;4.13;;;1.65;;
20772;SDS011;10546;50.674;4.616;2022-07-30T13:55:53;6.97;;;1.75;;
20772;SDS011;10546;50.674;4.616;2022-07-30T13:58:19;4.85;;;1.42;;
20772;SDS011;10546;50.674;4.616;2022-07-30T14:00:45;4.45;;;1.50;;
20772;SDS011;10546;50.674;4.616;2022-07-30T14:03:12;3.50;;;1.40;;
20772;SDS011;10546;50.674;4.616;2022-07-30T14:05:38;1.77;;;1.20;;
20772;SDS011;10546;50.674;4.616;2022-07-30T14:08:05;4.20;;;1.70;;
20772;SDS011;10546;50.674;4.616;2022-07-30T14:10:32;5.18;;;1.60;;
20772;SDS011;10546;50.674;4.616;2022-07-30T14:13:00;5.15;;;1.75;;
20772;SDS011;10546;50.674;4.616;2022-07-30T14:15:28;6.38;;;1.58;;
20772;SDS011;10546;50.674;4.616;2022-07-30T14:17:57;4.38;;;1.88;;
20772;SDS011;10546;50.674;4.616;2022-07-30T14:20:24;4.07;;;1.50;;
20772;SDS011;10546;50.674;4.616;2022-07-30T14:22:50;3.72;;;1.60;;
20772;SDS011;10546;50.674;4.616;2022-07-30T14:25:16;7.80;;;1.75;;
20772;SDS011;10546;50.674;4.616;2022-07-30T14:27:42;6.82;;;1.42;;
20772;SDS011;10546;50.674;4.616;2022-07-30T14:30:08;3.03;;;1.60;;
20772;SDS011;10546;50.674;4.616;2022-07-30T14:32:35;5.57;;;1.58;;
20772;SDS011;10546;50.674;4.616;2022-07-30T14:35:02;4.97;;;1.55;;
20772;SDS011;10546;50.674;4.616;2022-07-30T14:37:35;7.85;;;1.70;;
20772;SDS011;10546;50.674;4.616;2022-07-30T14:40:02;5.80;;;1.88;;
20772;SDS011;10546;50.674;4.616;2022-07-30T14:42:29;4.25;;;1.50;;
20772;SDS011;10546;50.674;4.616;2022-07-30T14:44:54;4.50;;;2.00;;
20772;SDS011;10546;50.674;4.616;2022-07-30T14:47:20;6.00;;;1.55;;
20772;SDS011;10546;50.674;4.616;2022-07-30T14:49:46;5.25;;;1.77;;
20772;SDS011;10546;50.674;4.616;2022-07-30T14:52:12;4.75;;;1.77;;
20772;SDS011;10546;50.674;4.616;2022-07-30T14:54:37;3.80;;;1.50;;
20772;SDS011;10546;50.674;4.616;2022-07-30T14:57:03;5.18;;;1.50;;
20772;SDS011;10546;50.674;4.616;2022-07-30T14:59:32;3.55;;;1.60;;
20772;SDS011;10546;50.674;4.616;2022-07-30T15:01:58;4.35;;;1.75;;
20772;SDS011;10546;50.674;4.616;2022-07-30T15:04:24;2.35;;;1.50;;
20772;SDS011;10546;50.674;4.616;2022-07-30T15:06:50;4.15;;;1.48;;
20772;SDS011;10546;50.674;4.616;2022-07-30T15:09:15;6.18;;;2.25;;
20772;SDS011;10546;50.674;4.616;2022-07-30T15:11:41;4.72;;;1.58;;
20772;SDS011;10546;50.674;4.616;2022-07-30T15:14:07;5.03;;;1.70;;
20772;SDS011;10546;50.674;4.616;2022-07-30T15:16:32;5.03;;;1.40;;
20772;SDS011;10546;50.674;4.616;2022-07-30T15:18:58;3.15;;;1.48;;
20772;SDS011;10546;50.674;4.616;2022-07-30T15:21:23;3.25;;;1.50;;
20772;SDS011;10546;50.674;4.616;2022-07-30T15:23:49;3.33;;;1.38;;